sensor_id;sensor_type;location;lat;lon;timestamp;pressure;altitude;pressure_sealevel;temperature;humidity
19208;BME280;9737;59.466;18.036;2023-01-10T00:02:10;96525.31;;;0.74;89.91
19208;BME280;9737;59.466;18.036;2023-01-10T00:04:38;96457.88;;;0.33;89.86
19208;BME280;9737;59.466;18.036;2023-01-10T00:07:06;96517.63;;;0.73;89.79
19208;BME280;9737;59.466;18.036;2023-01-10T00:09:34;96543.19;;;0.79;89.84
19208;BME280;9737;59.466;18.036;2023-01-10T00:12:04;96535.19;;;0.80;89.87
19208;BME280;9737;59.466;18.036;2023-01-10T00:15:04;96524.50;;;0.74;89.89
19208;BME280;9737;59.466;18.036;2023-01-10T00:17:33;96534.66;;;0.77;89.87
19208;BME280;9737;59.466;18.036;2023-01-10T00:20:02;96505.69;;;0.70;89.79
19208;BME280;9737;59.466;18.036;2023-01-10T00:22:30;96509.25;;;0.69;89.83
19208;BME280;9737;59.466;18.036;2023-01-10T00:24:58;96490.44;;;0.66;90.01
19208;BME280;9737;59.466;18.036;2023-01-10T00:27:27;96492.59;;;0.70;89.80
19208;BME280;9737;59.466;18.036;2023-01-10T00:29:55;96510.91;;;0.70;89.73
19208;BME280;9737;59.466;18.036;2023-01-10T00:32:26;96486.03;;;0.66;89.69
19208;BME280;9737;59.466;18.036;2023-01-10T00:34:54;96492.06;;;0.67;89.70
19208;BME280;9737;59.466;18.036;2023-01-10T00:37:22;96484.38;;;0.65;89.79
19208;BME280;9737;59.466;18.036;2023-01-10T00:39:50;96478.31;;;0.65;90.02
19208;BME280;9737;59.466;18.036;2023-01-10T00:42:18;96483.56;;;0.65;89.72
19208;BME280;9737;59.466;18.036;2023-01-10T00:45:06;96477.66;;;0.63;89.50
19208;BME280;9737;59.466;18.036;2023-01-10T00:47:34;96493.88;;;0.66;89.67
19208;BME280;9737;59.466;18.036;2023-01-10T00:50:02;96472.56;;;0.61;89.97
19208;BME280;9737;59.466;18.036;2023-01-10T00:52:32;96465.69;;;0.60;89.82
19208;BME280;9737;59.466;18.036;2023-01-10T00:55:00;96466.38;;;0.62;89.83
19208;BME280;9737;59.466;18.036;2023-01-10T00:57:28;96457.19;;;0.58;90.27
19208;BME280;9737;59.466;18.036;2023-01-10T00:59:56;96480.13;;;0.64;89.63
19208;BME280;9737;59.466;18.036;2023-01-10T01:02:25;96471.59;;;0.62;89.52
19208;BME280;9737;59.466;18.036;2023-01-10T01:04:53;96461.44;;;0.59;89.51
19208;BME280;9737;59.466;18.036;2023-01-10T01:07:21;96475.84;;;0.63;90.27
19208;BME280;9737;59.466;18.036;2023-01-10T01:09:49;96506.66;;;0.69;90.10
19208;BME280;9737;59.466;18.036;2023-01-10T01:12:35;96474.88;;;0.64;89.82
19208;BME280;9737;59.466;18.036;2023-01-10T01:15:04;96486.03;;;0.66;89.91
19208;BME280;9737;59.466;18.036;2023-01-10T01:17:33;96491.25;;;0.66;89.82
19208;BME280;9737;59.466;18.036;2023-01-10T01:20:02;96498.13;;;0.67;89.69
19208;BME280;9737;59.466;18.036;2023-01-10T01:22:30;96498.94;;;0.68;90.04
19208;BME280;9737;59.466;18.036;2023-01-10T01:24:58;96507.47;;;0.70;89.85
19208;BME280;9737;59.466;18.036;2023-01-10T01:27:26;96502.25;;;0.70;89.62
19208;BME280;9737;59.466;18.036;2023-01-10T01:29:54;96497.16;;;0.68;89.78
19208;BME280;9737;59.466;18.036;2023-01-10T01:32:23;96492.91;;;0.67;90.00
19208;BME280;9737;59.466;18.036;2023-01-10T01:34:52;96466.38;;;0.62;89.99
19208;BME280;9737;59.466;18.036;2023-01-10T01:37:20;96499.78;;;0.68;89.94
19208;BME280;9737;59.466;18.036;2023-01-10T01:39:48;96506.66;;;0.69;90.05
19208;BME280;9737;59.466;18.036;2023-01-10T01:42:20;96505.69;;;0.70;89.91
19208;BME280;9737;59.466;18.036;2023-01-10T01:45:30;96495.50;;;0.67;89.94
19208;BME280;9737;59.466;18.036;2023-01-10T01:48:05;96493.88;;;0.66;89.93
19208;BME280;9737;59.466;18.036;2023-01-10T01:50:39;96511.56;;;0.72;89.64
19208;BME280;9737;59.466;18.036;2023-01-10T01:53:10;96527.78;;;0.76;90.22
19208;BME280;9737;59.466;18.036;2023-01-10T01:55:42;96509.94;;;0.71;89.76
19208;BME280;9737;59.466;18.036;2023-01-10T01:58:17;96500.88;;;0.66;89.83
19208;BME280;9737;59.466;18.036;2023-01-10T02:00:46;96554.19;;;0.82;89.82
19208;BME280;9737;59.466;18.036;2023-01-10T02:03:14;96547.31;;;0.81;89.91
19208;BME280;9737;59.466;18.036;2023-01-10T02:05:44;96535.19;;;0.80;89.87
19208;BME280;9737;59.466;18.036;2023-01-10T02:08:12;96531.91;;;0.78;89.92
19208;BME280;9737;59.466;18.036;2023-01-10T02:10:44;96525.84;;;0.78;89.98
19208;BME280;9737;59.466;18.036;2023-01-10T02:13:17;96538.09;;;0.77;89.82
19208;BME280;9737;59.466;18.036;2023-01-10T02:15:46;96514.03;;;0.74;89.93
19208;BME280;9737;59.466;18.036;2023-01-10T02:18:14;96523.69;;;0.73;89.78
19208;BME280;9737;59.466;18.036;2023-01-10T02:20:56;96525.63;;;0.71;89.81
19208;BME280;9737;59.466;18.036;2023-01-10T02:23:42;96522.03;;;0.72;89.75
19208;BME280;9737;59.466;18.036;2023-01-10T02:26:28;96532.88;;;0.77;89.70
19208;BME280;9737;59.466;18.036;2023-01-10T02:29:16;96539.75;;;0.78;89.63
19208;BME280;9737;59.466;18.036;2023-01-10T02:32:04;96537.97;;;0.79;90.08
19208;BME280;9737;59.466;18.036;2023-01-10T02:34:41;96520.91;;;0.75;89.83
19208;BME280;9737;59.466;18.036;2023-01-10T02:37:17;96533.84;;;0.76;89.80
19208;BME280;9737;59.466;18.036;2023-01-10T02:39:54;96531.22;;;0.76;89.94
19208;BME280;9737;59.466;18.036;2023-01-10T02:42:28;96514.88;;;0.74;89.88
19208;BME280;9737;59.466;18.036;2023-01-10T02:45:01;96521.88;;;0.74;89.81
19208;BME280;9737;59.466;18.036;2023-01-10T02:47:35;96534.53;;;0.78;90.16
19208;BME280;9737;59.466;18.036;2023-01-10T02:50:28;96524.94;;;0.69;89.82
19208;BME280;9737;59.466;18.036;2023-01-10T02:52:59;96522.34;;;0.69;89.75
19208;BME280;9737;59.466;18.036;2023-01-10T02:55:35;96515.97;;;0.72;90.12
19208;BME280;9737;59.466;18.036;2023-01-10T02:58:16;96517.78;;;0.71;89.97
19208;BME280;9737;59.466;18.036;2023-01-10T03:00:55;96500.44;;;0.70;90.14
19208;BME280;9737;59.466;18.036;2023-01-10T03:03:33;96521.75;;;0.75;90.07
19208;BME280;9737;59.466;18.036;2023-01-10T03:06:14;96539.75;;;0.78;89.83
19208;BME280;9737;59.466;18.036;2023-01-10T03:08:49;96570.28;;;0.87;89.97
19208;BME280;9737;59.466;18.036;2023-01-10T03:11:22;96566.13;;;0.85;89.90
19208;BME280;9737;59.466;18.036;2023-01-10T03:14:12;96558.16;;;0.86;89.83
19208;BME280;9737;59.466;18.036;2023-01-10T03:16:44;96578.81;;;0.89;89.84
19208;BME280;9737;59.466;18.036;2023-01-10T03:19:16;96545.97;;;0.77;89.94
19208;BME280;9737;59.466;18.036;2023-01-10T03:21:53;96557.31;;;0.86;89.90
19208;BME280;9737;59.466;18.036;2023-01-10T03:24:26;96556.66;;;0.84;89.98
19208;BME280;9737;59.466;18.036;2023-01-10T03:26:56;96546.34;;;0.82;89.75
19208;BME280;9737;59.466;18.036;2023-01-10T03:29:28;96538.78;;;0.79;90.05
19208;BME280;9737;59.466;18.036;2023-01-10T03:32:01;96553.06;;;0.85;89.80
19208;BME280;9737;59.466;18.036;2023-01-10T03:34:34;96552.53;;;0.81;89.99
19208;BME280;9737;59.466;18.036;2023-01-10T03:37:08;96559.13;;;0.85;89.98
19208;BME280;9737;59.466;18.036;2023-01-10T03:39:43;96560.09;;;0.84;90.08
19208;BME280;9737;59.466;18.036;2023-01-10T03:42:20;96567.78;;;0.86;90.33
19208;BME280;9737;59.466;18.036;2023-01-10T03:44:57;96552.25;;;0.84;89.87
19208;BME280;9737;59.466;18.036;2023-01-10T03:47:32;96546.47;;;0.81;89.89
19208;BME280;9737;59.466;18.036;2023-01-10T03:50:07;96567.66;;;0.87;89.85
19208;BME280;9737;59.466;18.036;2023-01-10T03:52:36;96570.97;;;0.89;89.84
19208;BME280;9737;59.466;18.036;2023-01-10T03:55:05;96589.94;;;0.91;89.87
19208;BME280;9737;59.466;18.036;2023-01-10T03:57:34;96559.13;;;0.85;89.88
19208;BME280;9737;59.466;18.036;2023-01-10T04:00:06;96552.25;;;0.84;90.06
19208;BME280;9737;59.466;18.036;2023-01-10T04:02:35;96607.81;;;0.96;89.68
19208;BME280;9737;59.466;18.036;2023-01-10T04:05:05;96586.66;;;0.89;90.26
19208;BME280;9737;59.466;18.036;2023-01-10T04:07:33;96625.69;;;1.01;89.91
19208;BME280;9737;59.466;18.036;2023-01-10T04:10:03;96588.31;;;0.90;89.93
19208;BME280;9737;59.466;18.036;2023-01-10T04:12:32;96596.69;;;0.94;89.87
19208;BME280;9737;59.466;18.036;2023-01-10T04:14:59;96581.13;;;0.92;90.18
19208;BME280;9737;59.466;18.036;2023-01-10T04:17:28;96600.13;;;0.95;90.23
19208;BME280;9737;59.466;18.036;2023-01-10T04:19:56;96603.41;;;0.97;89.77
19208;BME280;9737;59.466;18.036;2023-01-10T04:22:25;96612.91;;;0.98;90.37
19208;BME280;9737;59.466;18.036;2023-01-10T04:24:54;96631.59;;;1.03;89.96
19208;BME280;9737;59.466;18.036;2023-01-10T04:27:22;96628.97;;;1.03;89.73
19208;BME280;9737;59.466;18.036;2023-01-10T04:29:50;96630.63;;;1.04;89.87
19208;BME280;9737;59.466;18.036;2023-01-10T04:32:19;96644.69;;;1.03;89.95
19208;BME280;9737;59.466;18.036;2023-01-10T04:34:47;96652.91;;;1.08;89.84
19208;BME280;9737;59.466;18.036;2023-01-10T04:37:15;96664.06;;;1.10;89.50
19208;BME280;9737;59.466;18.036;2023-01-10T04:39:44;96646.84;;;1.07;90.04
19208;BME280;9737;59.466;18.036;2023-01-10T04:42:12;96634.22;;;1.03;89.99
19208;BME280;9737;59.466;18.036;2023-01-10T04:44:40;96650.28;;;1.08;89.89
19208;BME280;9737;59.466;18.036;2023-01-10T04:47:08;96662.13;;;1.12;89.95
19208;BME280;9737;59.466;18.036;2023-01-10T04:49:36;96662.25;;;1.10;90.20
19208;BME280;9737;59.466;18.036;2023-01-10T04:52:03;96642.75;;;1.05;90.06
19208;BME280;9737;59.466;18.036;2023-01-10T04:54:31;96670.66;;;1.14;90.16
19208;BME280;9737;59.466;18.036;2023-01-10T04:57:01;96707.41;;;1.22;90.13
19208;BME280;9737;59.466;18.036;2023-01-10T04:59:28;96684.44;;;1.16;89.87
19208;BME280;9737;59.466;18.036;2023-01-10T05:01:59;96748.41;;;1.31;90.04
19208;BME280;9737;59.466;18.036;2023-01-10T05:04:27;96742.19;;;1.32;89.83
19208;BME280;9737;59.466;18.036;2023-01-10T05:06:55;96724.31;;;1.28;89.88
19208;BME280;9737;59.466;18.036;2023-01-10T05:09:23;96720.88;;;1.27;90.09
19208;BME280;9737;59.466;18.036;2023-01-10T05:11:50;96740.69;;;1.30;89.82
19208;BME280;9737;59.466;18.036;2023-01-10T05:14:20;96768.78;;;1.37;90.05
19208;BME280;9737;59.466;18.036;2023-01-10T05:16:47;96753.34;;;1.34;89.84
19208;BME280;9737;59.466;18.036;2023-01-10T05:19:15;96742.34;;;1.31;90.04
19208;BME280;9737;59.466;18.036;2023-01-10T05:21:43;96746.47;;;1.33;89.80
19208;BME280;9737;59.466;18.036;2023-01-10T05:24:11;96747.28;;;1.34;90.15
19208;BME280;9737;59.466;18.036;2023-01-10T05:26:39;96765.47;;;1.35;90.09
19208;BME280;9737;59.466;18.036;2023-01-10T05:29:09;96769.44;;;1.39;89.90
19208;BME280;9737;59.466;18.036;2023-01-10T05:31:40;96794.66;;;1.40;89.93
19208;BME280;9737;59.466;18.036;2023-01-10T05:34:10;96807.06;;;1.48;90.21
19208;BME280;9737;59.466;18.036;2023-01-10T05:36:38;96812.28;;;1.48;89.79
19208;BME280;9737;59.466;18.036;2023-01-10T05:39:07;96800.72;;;1.41;89.93
19208;BME280;9737;59.466;18.036;2023-01-10T05:41:35;96859.09;;;1.61;90.14
19208;BME280;9737;59.466;18.036;2023-01-10T05:44:03;96839.41;;;1.57;90.04
19208;BME280;9737;59.466;18.036;2023-01-10T05:46:31;96846.44;;;1.56;89.93
19208;BME280;9737;59.466;18.036;2023-01-10T05:49:01;96860.75;;;1.62;90.13
19208;BME280;9737;59.466;18.036;2023-01-10T05:51:29;96876.16;;;1.65;90.09
19208;BME280;9737;59.466;18.036;2023-01-10T05:53:57;96874.53;;;1.64;89.75
19208;BME280;9737;59.466;18.036;2023-01-10T05:56:25;96883.06;;;1.66;90.15
19208;BME280;9737;59.466;18.036;2023-01-10T05:58:53;96870.41;;;1.61;90.17
19208;BME280;9737;59.466;18.036;2023-01-10T06:01:33;96872.03;;;1.62;90.00
19208;BME280;9737;59.466;18.036;2023-01-10T06:04:02;96865.16;;;1.61;90.04
19208;BME280;9737;59.466;18.036;2023-01-10T06:06:30;96903.44;;;1.72;89.97
19208;BME280;9737;59.466;18.036;2023-01-10T06:09:00;96902.59;;;1.71;89.99
19208;BME280;9737;59.466;18.036;2023-01-10T06:11:28;96905.22;;;1.71;90.06
19208;BME280;9737;59.466;18.036;2023-01-10T06:13:56;96911.16;;;1.73;89.97
19208;BME280;9737;59.466;18.036;2023-01-10T06:16:26;96942.72;;;1.81;89.90
19208;BME280;9737;59.466;18.036;2023-01-10T06:18:54;96930.88;;;1.77;90.21
19208;BME280;9737;59.466;18.036;2023-01-10T06:21:23;96948.78;;;1.82;90.02
19208;BME280;9737;59.466;18.036;2023-01-10T06:23:54;96920.53;;;1.76;89.96
19208;BME280;9737;59.466;18.036;2023-01-10T06:26:22;96931.56;;;1.79;90.02
19208;BME280;9737;59.466;18.036;2023-01-10T06:28:51;96920.53;;;1.76;90.00
19208;BME280;9737;59.466;18.036;2023-01-10T06:31:19;96938.44;;;1.80;89.94
19208;BME280;9737;59.466;18.036;2023-01-10T06:33:49;96947.81;;;1.83;90.01
19208;BME280;9737;59.466;18.036;2023-01-10T06:36:17;96983.25;;;1.87;90.01
19208;BME280;9737;59.466;18.036;2023-01-10T06:38:47;97002.38;;;1.97;90.01
19208;BME280;9737;59.466;18.036;2023-01-10T06:41:15;96981.97;;;1.91;90.00
19208;BME280;9737;59.466;18.036;2023-01-10T06:43:45;97003.34;;;1.96;90.26
19208;BME280;9737;59.466;18.036;2023-01-10T06:46:15;96999.91;;;1.96;90.00
19208;BME280;9737;59.466;18.036;2023-01-10T06:48:43;97012.56;;;2.00;90.30
19208;BME280;9737;59.466;18.036;2023-01-10T06:51:12;97017.81;;;2.00;90.04
19208;BME280;9737;59.466;18.036;2023-01-10T06:53:41;97001.97;;;1.92;89.79
19208;BME280;9737;59.466;18.036;2023-01-10T06:56:10;97017.81;;;2.00;90.05
19208;BME280;9737;59.466;18.036;2023-01-10T06:58:38;97047.75;;;2.07;90.08
19208;BME280;9737;59.466;18.036;2023-01-10T07:01:12;97077.66;;;2.14;89.91
19208;BME280;9737;59.466;18.036;2023-01-10T07:03:41;97083.44;;;2.18;90.09
19208;BME280;9737;59.466;18.036;2023-01-10T07:06:09;97094.75;;;2.18;90.04
19208;BME280;9737;59.466;18.036;2023-01-10T07:08:37;97082.63;;;2.17;90.03
19208;BME280;9737;59.466;18.036;2023-01-10T07:11:06;97104.97;;;2.22;90.06
19208;BME280;9737;59.466;18.036;2023-01-10T07:13:35;97097.38;;;2.18;90.05
19208;BME280;9737;59.466;18.036;2023-01-10T07:16:05;97087.88;;;2.17;89.97
19208;BME280;9737;59.466;18.036;2023-01-10T07:18:34;97130.47;;;2.29;90.07
19208;BME280;9737;59.466;18.036;2023-01-10T07:21:03;97118.75;;;2.24;90.04
19208;BME280;9737;59.466;18.036;2023-01-10T07:23:32;97128.00;;;2.28;89.99
19208;BME280;9737;59.466;18.036;2023-01-10T07:26:02;97093.66;;;2.21;90.12
19208;BME280;9737;59.466;18.036;2023-01-10T07:28:31;97108.56;;;2.21;89.78
19208;BME280;9737;59.466;18.036;2023-01-10T07:31:03;97123.72;;;2.27;89.96
19208;BME280;9737;59.466;18.036;2023-01-10T07:33:34;97091.16;;;2.20;90.15
19208;BME280;9737;59.466;18.036;2023-01-10T07:36:02;97126.19;;;2.28;89.99
19208;BME280;9737;59.466;18.036;2023-01-10T07:38:30;97149.09;;;2.36;89.99
19208;BME280;9737;59.466;18.036;2023-01-10T07:41:00;97171.75;;;2.37;90.05
19208;BME280;9737;59.466;18.036;2023-01-10T07:43:29;97206.50;;;2.48;89.93
19208;BME280;9737;59.466;18.036;2023-01-10T07:46:01;97222.78;;;2.52;90.09
19208;BME280;9737;59.466;18.036;2023-01-10T07:48:29;97255.09;;;2.62;90.00
19208;BME280;9737;59.466;18.036;2023-01-10T07:50:57;97261.03;;;2.64;90.12
19208;BME280;9737;59.466;18.036;2023-01-10T07:53:28;97308.38;;;2.72;89.80
19208;BME280;9737;59.466;18.036;2023-01-10T07:55:59;97340.69;;;2.83;89.88
19208;BME280;9737;59.466;18.036;2023-01-10T07:58:27;97332.13;;;2.80;89.92
19208;BME280;9737;59.466;18.036;2023-01-10T08:00:56;97345.66;;;2.86;89.89
19208;BME280;9737;59.466;18.036;2023-01-10T08:03:26;97361.13;;;2.89;89.81
19208;BME280;9737;59.466;18.036;2023-01-10T08:05:59;97352.56;;;2.87;89.90
19208;BME280;9737;59.466;18.036;2023-01-10T08:08:27;97381.88;;;2.92;89.92
19208;BME280;9737;59.466;18.036;2023-01-10T08:10:56;97378.41;;;2.91;89.94
19208;BME280;9737;59.466;18.036;2023-01-10T08:13:25;97374.13;;;2.90;89.82
19208;BME280;9737;59.466;18.036;2023-01-10T08:15:53;97383.53;;;2.93;90.20
19208;BME280;9737;59.466;18.036;2023-01-10T08:18:21;97399.81;;;2.96;90.06
19208;BME280;9737;59.466;18.036;2023-01-10T08:20:53;97399.00;;;2.96;89.80
19208;BME280;9737;59.466;18.036;2023-01-10T08:23:21;97394.56;;;2.96;90.09
19208;BME280;9737;59.466;18.036;2023-01-10T08:25:49;97393.75;;;2.96;90.00
19208;BME280;9737;59.466;18.036;2023-01-10T08:28:17;97408.25;;;3.00;90.05
19208;BME280;9737;59.466;18.036;2023-01-10T08:30:45;97412.81;;;2.98;89.98
19208;BME280;9737;59.466;18.036;2023-01-10T08:33:17;97416.13;;;3.00;90.05
19208;BME280;9737;59.466;18.036;2023-01-10T08:35:44;97428.97;;;3.03;90.22
19208;BME280;9737;59.466;18.036;2023-01-10T08:38:14;97442.50;;;3.08;89.99
19208;BME280;9737;59.466;18.036;2023-01-10T08:40:42;97453.69;;;3.10;90.42
19208;BME280;9737;59.466;18.036;2023-01-10T08:43:11;97445.97;;;3.08;90.20
19208;BME280;9737;59.466;18.036;2023-01-10T08:45:39;97457.00;;;3.12;90.07
19208;BME280;9737;59.466;18.036;2023-01-10T08:48:07;97479.41;;;3.16;90.09
19208;BME280;9737;59.466;18.036;2023-01-10T08:50:36;97486.31;;;3.17;89.98
19208;BME280;9737;59.466;18.036;2023-01-10T08:53:04;97490.63;;;3.18;90.03
19208;BME280;9737;59.466;18.036;2023-01-10T08:55:33;97499.88;;;3.22;90.09
19208;BME280;9737;59.466;18.036;2023-01-10T08:58:01;97482.75;;;3.18;89.82
19208;BME280;9737;59.466;18.036;2023-01-10T09:00:29;97489.66;;;3.19;90.45
19208;BME280;9737;59.466;18.036;2023-01-10T09:02:57;97502.50;;;3.22;90.18
19208;BME280;9737;59.466;18.036;2023-01-10T09:05:25;97499.88;;;3.22;90.21
19208;BME280;9737;59.466;18.036;2023-01-10T09:07:57;97518.13;;;3.24;90.29
19208;BME280;9737;59.466;18.036;2023-01-10T09:10:26;97527.25;;;3.29;89.82
19208;BME280;9737;59.466;18.036;2023-01-10T09:12:56;97550.47;;;3.34;90.39
19208;BME280;9737;59.466;18.036;2023-01-10T09:15:28;97550.47;;;3.34;90.24
19208;BME280;9737;59.466;18.036;2023-01-10T09:17:58;97560.69;;;3.37;90.09
19208;BME280;9737;59.466;18.036;2023-01-10T09:20:27;97557.38;;;3.35;89.89
19208;BME280;9737;59.466;18.036;2023-01-10T09:22:56;97555.59;;;3.35;90.45
19208;BME280;9737;59.466;18.036;2023-01-10T09:25:25;97568.44;;;3.38;90.29
19208;BME280;9737;59.466;18.036;2023-01-10T09:27:58;97578.69;;;3.41;90.22
19208;BME280;9737;59.466;18.036;2023-01-10T09:30:27;97585.59;;;3.42;90.12
19208;BME280;9737;59.466;18.036;2023-01-10T09:32:56;97596.66;;;3.46;90.04
19208;BME280;9737;59.466;18.036;2023-01-10T09:35:25;97613.00;;;3.50;89.69
19208;BME280;9737;59.466;18.036;2023-01-10T09:37:57;97614.66;;;3.51;90.26
19208;BME280;9737;59.466;18.036;2023-01-10T09:40:35;97619.91;;;3.51;90.21
19208;BME280;9737;59.466;18.036;2023-01-10T09:43:17;97637.91;;;3.55;90.38
19208;BME280;9737;59.466;18.036;2023-01-10T09:45:56;97637.06;;;3.55;90.17
19208;BME280;9737;59.466;18.036;2023-01-10T09:48:33;97668.75;;;3.63;89.88
19208;BME280;9737;59.466;18.036;2023-01-10T09:51:12;97661.81;;;3.62;90.18
19208;BME280;9737;59.466;18.036;2023-01-10T09:53:42;97667.78;;;3.64;89.77
19208;BME280;9737;59.466;18.036;2023-01-10T09:56:13;97685.91;;;3.67;89.90
19208;BME280;9737;59.466;18.036;2023-01-10T09:58:47;97709.69;;;3.75;90.34
19208;BME280;9737;59.466;18.036;2023-01-10T10:01:17;97685.06;;;3.57;90.34
19208;BME280;9737;59.466;18.036;2023-01-10T10:03:51;97742.38;;;3.82;90.29
19208;BME280;9737;59.466;18.036;2023-01-10T10:06:21;97750.28;;;3.82;90.30
19208;BME280;9737;59.466;18.036;2023-01-10T10:08:51;97753.47;;;3.86;89.85
19208;BME280;9737;59.466;18.036;2023-01-10T10:11:40;97778.38;;;3.91;90.17
19208;BME280;9737;59.466;18.036;2023-01-10T10:14:23;97748.34;;;3.84;90.23
19208;BME280;9737;59.466;18.036;2023-01-10T10:17:07;97759.53;;;3.86;89.92
19208;BME280;9737;59.466;18.036;2023-01-10T10:19:51;97764.81;;;3.86;90.14
19208;BME280;9737;59.466;18.036;2023-01-10T10:22:27;97770.75;;;3.88;90.24
19208;BME280;9737;59.466;18.036;2023-01-10T10:25:06;97767.44;;;3.86;89.88
19208;BME280;9737;59.466;18.036;2023-01-10T10:27:51;97757.19;;;3.83;89.75
19208;BME280;9737;59.466;18.036;2023-01-10T10:30:35;97753.59;;;3.84;90.23
19208;BME280;9737;59.466;18.036;2023-01-10T10:33:30;97763.97;;;3.86;89.83
19208;BME280;9737;59.466;18.036;2023-01-10T10:36:03;97750.28;;;3.82;89.84
19208;BME280;9737;59.466;18.036;2023-01-10T10:38:38;97747.66;;;3.82;89.93
19208;BME280;9737;59.466;18.036;2023-01-10T10:41:14;97753.59;;;3.84;90.28
19208;BME280;9737;59.466;18.036;2023-01-10T10:43:45;97767.44;;;3.86;89.92
19208;BME280;9737;59.466;18.036;2023-01-10T10:46:16;97777.69;;;3.89;90.25
19208;BME280;9737;59.466;18.036;2023-01-10T10:48:49;97770.75;;;3.88;90.49
19208;BME280;9737;59.466;18.036;2023-01-10T10:51:25;97780.31;;;3.89;89.96
19208;BME280;9737;59.466;18.036;2023-01-10T10:53:55;97795.69;;;3.94;89.77
19208;BME280;9737;59.466;18.036;2023-01-10T10:56:25;97795.81;;;3.92;89.80
19208;BME280;9737;59.466;18.036;2023-01-10T10:58:54;97793.03;;;3.94;89.58
19208;BME280;9737;59.466;18.036;2023-01-10T11:01:24;97790.56;;;3.92;89.94
19208;BME280;9737;59.466;18.036;2023-01-10T11:03:57;97799.97;;;3.95;90.25
19208;BME280;9737;59.466;18.036;2023-01-10T11:06:28;97806.75;;;3.97;90.24
19208;BME280;9737;59.466;18.036;2023-01-10T11:09:02;97816.31;;;3.98;90.37
19208;BME280;9737;59.466;18.036;2023-01-10T11:11:32;97805.09;;;3.96;90.03
19208;BME280;9737;59.466;18.036;2023-01-10T11:14:02;97822.25;;;4.00;90.28
19208;BME280;9737;59.466;18.036;2023-01-10T11:16:34;97820.47;;;4.01;90.11
19208;BME280;9737;59.466;18.036;2023-01-10T11:19:18;97829.19;;;4.01;90.27
19208;BME280;9737;59.466;18.036;2023-01-10T11:21:49;97812.00;;;3.97;89.91
19208;BME280;9737;59.466;18.036;2023-01-10T11:24:26;97829.19;;;4.01;90.23
19208;BME280;9737;59.466;18.036;2023-01-10T11:26:57;97823.22;;;3.99;90.22
19208;BME280;9737;59.466;18.036;2023-01-10T11:29:35;97820.59;;;3.99;90.09
19208;BME280;9737;59.466;18.036;2023-01-10T11:32:11;97821.44;;;4.00;89.79
19208;BME280;9737;59.466;18.036;2023-01-10T11:34:45;97827.25;;;4.03;89.60
19208;BME280;9737;59.466;18.036;2023-01-10T11:37:19;97814.50;;;3.99;89.93
19208;BME280;9737;59.466;18.036;2023-01-10T11:39:48;97837.66;;;4.05;89.83
19208;BME280;9737;59.466;18.036;2023-01-10T11:42:26;97854.97;;;4.08;89.93
19208;BME280;9737;59.466;18.036;2023-01-10T11:45:19;97848.03;;;4.07;89.57
19208;BME280;9737;59.466;18.036;2023-01-10T11:47:51;97854.69;;;4.11;89.84
19208;BME280;9737;59.466;18.036;2023-01-10T11:50:23;97871.16;;;4.13;89.96
19208;BME280;9737;59.466;18.036;2023-01-10T11:52:53;97845.41;;;4.07;89.77
19208;BME280;9737;59.466;18.036;2023-01-10T11:55:23;97858.28;;;4.10;89.67
19208;BME280;9737;59.466;18.036;2023-01-10T11:58:01;97853.31;;;4.07;90.23
19208;BME280;9737;59.466;18.036;2023-01-10T12:00:32;97870.22;;;4.14;89.82
19208;BME280;9737;59.466;18.036;2023-01-10T12:03:14;97858.28;;;4.10;90.03
19208;BME280;9737;59.466;18.036;2023-01-10T12:05:50;97882.38;;;4.15;89.79
19208;BME280;9737;59.466;18.036;2023-01-10T12:08:26;97875.47;;;4.14;89.78
19208;BME280;9737;59.466;18.036;2023-01-10T12:10:59;97877.13;;;4.15;90.52
19208;BME280;9737;59.466;18.036;2023-01-10T12:13:29;97878.94;;;4.14;89.77
19208;BME280;9737;59.466;18.036;2023-01-10T12:16:14;97883.22;;;4.15;90.27
19208;BME280;9737;59.466;18.036;2023-01-10T12:18:44;97885.03;;;4.15;90.09
19208;BME280;9737;59.466;18.036;2023-01-10T12:21:15;97902.06;;;4.20;89.84
19208;BME280;9737;59.466;18.036;2023-01-10T12:23:46;97891.25;;;4.14;90.36
19208;BME280;9737;59.466;18.036;2023-01-10T12:26:17;97860.22;;;4.08;89.67
19208;BME280;9737;59.466;18.036;2023-01-10T12:28:49;97875.47;;;4.14;89.89
19208;BME280;9737;59.466;18.036;2023-01-10T12:31:20;97906.34;;;4.21;90.20
19208;BME280;9737;59.466;18.036;2023-01-10T12:33:55;97911.47;;;4.23;90.13
19208;BME280;9737;59.466;18.036;2023-01-10T12:36:31;97848.81;;;3.97;90.17
19208;BME280;9737;59.466;18.036;2023-01-10T12:39:10;97909.00;;;4.21;90.31
19208;BME280;9737;59.466;18.036;2023-01-10T12:41:51;97891.94;;;4.16;90.34
19208;BME280;9737;59.466;18.036;2023-01-10T12:44:41;97925.34;;;4.25;90.01
19208;BME280;9737;59.466;18.036;2023-01-10T12:47:17;97897.63;;;4.21;90.23
19208;BME280;9737;59.466;18.036;2023-01-10T12:49:52;97916.75;;;4.23;90.35
19208;BME280;9737;59.466;18.036;2023-01-10T12:52:30;97939.59;;;4.22;90.03
19208;BME280;9737;59.466;18.036;2023-01-10T12:54:59;97934.88;;;4.26;89.59
19208;BME280;9737;59.466;18.036;2023-01-10T12:57:31;97963.06;;;4.35;90.08
19208;BME280;9737;59.466;18.036;2023-01-10T13:00:04;97953.72;;;4.31;90.32
19208;BME280;9737;59.466;18.036;2023-01-10T13:02:37;97937.25;;;4.29;90.12
19208;BME280;9737;59.466;18.036;2023-01-10T13:05:15;97937.25;;;4.29;89.67
19208;BME280;9737;59.466;18.036;2023-01-10T13:07:44;97956.38;;;4.31;89.94
19208;BME280;9737;59.466;18.036;2023-01-10T13:10:14;97973.59;;;4.35;90.00
19208;BME280;9737;59.466;18.036;2023-01-10T13:12:46;97977.03;;;4.35;90.30
19208;BME280;9737;59.466;18.036;2023-01-10T13:15:20;97971.66;;;4.37;89.58
19208;BME280;9737;59.466;18.036;2023-01-10T13:17:52;97975.25;;;4.36;90.16
19208;BME280;9737;59.466;18.036;2023-01-10T13:20:35;97971.66;;;4.37;90.17
19208;BME280;9737;59.466;18.036;2023-01-10T13:23:29;97971.78;;;4.35;90.18
19208;BME280;9737;59.466;18.036;2023-01-10T13:26:02;97975.25;;;4.36;90.20
19208;BME280;9737;59.466;18.036;2023-01-10T13:28:32;97982.72;;;4.41;89.83
19208;BME280;9737;59.466;18.036;2023-01-10T13:31:03;97995.88;;;4.41;89.83
19208;BME280;9737;59.466;18.036;2023-01-10T13:33:36;97994.09;;;4.41;90.12
19208;BME280;9737;59.466;18.036;2023-01-10T13:36:10;97995.75;;;4.42;90.46